createdAt,value
2023-01-09T00:01:21.945Z,4.47
2023-01-09T00:02:53.497Z,4.50
2023-01-09T00:04:25.052Z,4.56
2023-01-09T00:05:56.613Z,4.58
2023-01-09T00:07:28.130Z,4.60
2023-01-09T00:08:59.721Z,4.57
2023-01-09T00:10:31.212Z,4.59
2023-01-09T00:12:03.211Z,4.55
2023-01-09T00:13:34.863Z,4.52
2023-01-09T00:15:06.589Z,4.59
2023-01-09T00:16:38.133Z,4.68
2023-01-09T00:18:09.737Z,4.73
2023-01-09T00:19:41.921Z,4.72
2023-01-09T00:21:16.588Z,4.72
2023-01-09T00:22:51.998Z,4.74
2023-01-09T00:24:27.474Z,4.77
2023-01-09T00:26:14.996Z,4.75
2023-01-09T00:27:50.796Z,4.77
2023-01-09T00:29:27.413Z,4.75
2023-01-09T00:31:03.976Z,4.80
2023-01-09T00:32:39.583Z,4.78
2023-01-09T00:34:11.636Z,4.78
2023-01-09T00:35:43.178Z,4.83
2023-01-09T00:37:14.699Z,4.86
2023-01-09T00:38:46.261Z,4.91
2023-01-09T00:40:17.945Z,4.96
2023-01-09T00:41:50.692Z,4.93
2023-01-09T00:43:22.402Z,4.87
2023-01-09T00:45:04.317Z,4.89
2023-01-09T00:46:36.916Z,4.94
2023-01-09T00:48:09.984Z,4.91
2023-01-09T00:49:41.511Z,4.91
2023-01-09T00:51:13.233Z,4.83
2023-01-09T00:52:44.844Z,4.72
2023-01-09T00:54:16.683Z,4.64
2023-01-09T00:55:48.241Z,4.59
2023-01-09T00:57:19.836Z,4.56
2023-01-09T00:58:51.938Z,4.59
2023-01-09T01:00:23.452Z,4.63
2023-01-09T01:01:55.140Z,4.62
2023-01-09T01:03:26.757Z,4.64
2023-01-09T01:05:16.942Z,4.66
2023-01-09T01:07:06.998Z,4.68
2023-01-09T01:08:38.631Z,4.68
2023-01-09T01:10:11.556Z,4.71
2023-01-09T01:11:43.281Z,4.70
2023-01-09T01:13:14.783Z,4.68
2023-01-09T01:14:46.313Z,4.64
2023-01-09T01:16:18.584Z,4.60
2023-01-09T01:17:50.140Z,4.58
2023-01-09T01:19:21.614Z,4.54
2023-01-09T01:20:53.145Z,4.54
2023-01-09T01:22:24.673Z,4.55
2023-01-09T01:23:56.135Z,4.57
2023-01-09T01:25:27.728Z,4.62
2023-01-09T01:26:59.293Z,4.62
2023-01-09T01:28:30.902Z,4.66
2023-01-09T01:30:02.553Z,4.63
2023-01-09T01:31:34.095Z,4.65
2023-01-09T01:33:05.704Z,4.66
2023-01-09T01:34:37.268Z,4.67
2023-01-09T01:36:08.988Z,4.65
2023-01-09T01:37:40.596Z,4.63
2023-01-09T01:39:12.122Z,4.64
2023-01-09T01:40:43.637Z,4.63
2023-01-09T01:42:15.158Z,4.59
2023-01-09T01:43:56.641Z,4.55
2023-01-09T01:45:28.699Z,4.51
2023-01-09T01:47:00.145Z,4.49
2023-01-09T01:48:31.742Z,4.53
2023-01-09T01:50:04.913Z,4.53
2023-01-09T01:51:37.911Z,4.51
2023-01-09T01:53:19.899Z,4.50
2023-01-09T01:54:51.476Z,4.48
2023-01-09T01:56:24.486Z,4.49
2023-01-09T01:57:57.254Z,4.57
2023-01-09T01:59:29.602Z,4.55
2023-01-09T02:01:01.336Z,4.53
2023-01-09T02:02:33.056Z,4.55
2023-01-09T02:04:04.780Z,4.59
2023-01-09T02:05:36.663Z,4.61
2023-01-09T02:07:09.205Z,4.64
2023-01-09T02:08:40.836Z,4.66
2023-01-09T02:10:12.398Z,4.70
2023-01-09T02:11:52.405Z,4.66
2023-01-09T02:13:24.025Z,4.62
2023-01-09T02:15:09.066Z,4.57
2023-01-09T02:17:06.712Z,4.52
2023-01-09T02:18:46.282Z,4.51
2023-01-09T02:20:17.738Z,4.45
2023-01-09T02:21:58.352Z,4.44
2023-01-09T02:23:39.176Z,4.42
2023-01-09T02:25:16.378Z,4.40
2023-01-09T02:26:53.916Z,4.42
2023-01-09T02:28:31.336Z,4.44
2023-01-09T02:30:26.781Z,4.48
2023-01-09T02:32:08.488Z,4.49
2023-01-09T02:33:47.992Z,4.50
2023-01-09T02:35:22.316Z,4.55
2023-01-09T02:37:05.630Z,4.55
2023-01-09T02:38:41.521Z,4.57
2023-01-09T02:40:18.463Z,4.55
2023-01-09T02:41:55.939Z,4.56
2023-01-09T02:43:27.556Z,4.54
2023-01-09T02:44:59.007Z,4.52
2023-01-09T02:46:30.492Z,4.50
2023-01-09T02:48:01.951Z,4.49
2023-01-09T02:49:37.464Z,4.43
2023-01-09T02:51:18.000Z,4.33
2023-01-09T02:53:08.081Z,4.26
2023-01-09T02:54:49.714Z,4.19
2023-01-09T02:56:39.711Z,4.09
2023-01-09T02:58:26.548Z,3.97
2023-01-09T02:59:58.137Z,3.88
2023-01-09T03:01:49.976Z,3.83
2023-01-09T03:03:27.735Z,3.79
2023-01-09T03:05:13.587Z,3.81
2023-01-09T03:06:48.084Z,3.83
2023-01-09T03:08:20.231Z,3.87
2023-01-09T03:09:52.380Z,3.87
2023-01-09T03:11:24.384Z,3.80
2023-01-09T03:12:58.754Z,3.76
2023-01-09T03:14:30.487Z,3.73
2023-01-09T03:16:03.163Z,3.74
2023-01-09T03:17:36.597Z,3.74
2023-01-09T03:19:19.075Z,3.73
2023-01-09T03:20:50.908Z,3.72
2023-01-09T03:22:22.457Z,3.70
2023-01-09T03:24:00.840Z,3.71
2023-01-09T03:25:32.393Z,3.72
2023-01-09T03:27:03.912Z,3.79
2023-01-09T03:28:35.453Z,3.83
2023-01-09T03:30:07.313Z,3.87
2023-01-09T03:31:38.938Z,3.95
2023-01-09T03:33:10.600Z,4.01
2023-01-09T03:34:42.126Z,4.03
2023-01-09T03:36:14.052Z,4.04
2023-01-09T03:37:45.537Z,4.05
2023-01-09T03:39:17.069Z,4.02
2023-01-09T03:40:48.637Z,4.03
2023-01-09T03:42:20.183Z,4.04
2023-01-09T03:43:51.732Z,4.04
2023-01-09T03:45:23.263Z,4.03
2023-01-09T03:46:54.824Z,4.04
2023-01-09T03:48:26.628Z,4.00
2023-01-09T03:49:58.250Z,3.99
2023-01-09T03:51:29.783Z,4.00
2023-01-09T03:53:01.280Z,4.03
2023-01-09T03:54:32.808Z,4.06
2023-01-09T03:56:04.365Z,4.08
2023-01-09T03:57:35.962Z,4.09
2023-01-09T03:59:07.937Z,4.12
2023-01-09T04:00:40.934Z,4.19
2023-01-09T04:02:12.557Z,4.26
2023-01-09T04:03:44.288Z,4.30
2023-01-09T04:05:15.798Z,4.32
2023-01-09T04:06:47.347Z,4.33
2023-01-09T04:08:18.918Z,4.36
2023-01-09T04:09:50.453Z,4.40
2023-01-09T04:11:22.642Z,4.42
2023-01-09T04:12:54.214Z,4.45
2023-01-09T04:14:25.723Z,4.46
2023-01-09T04:15:57.216Z,4.50
2023-01-09T04:17:28.819Z,4.52
2023-01-09T04:19:00.459Z,4.54
2023-01-09T04:20:32.146Z,4.57
2023-01-09T04:22:03.660Z,4.60
2023-01-09T04:23:35.400Z,4.65
2023-01-09T04:25:07.121Z,4.77
2023-01-09T04:26:38.787Z,4.86
2023-01-09T04:28:10.294Z,4.89
2023-01-09T04:29:41.813Z,4.94
2023-01-09T04:31:13.605Z,5.00
2023-01-09T04:32:45.126Z,5.09
2023-01-09T04:34:16.623Z,5.13
2023-01-09T04:35:48.050Z,5.11
2023-01-09T04:37:19.681Z,5.11
2023-01-09T04:38:51.308Z,5.14
2023-01-09T04:40:22.874Z,5.18
2023-01-09T04:41:54.444Z,5.19
2023-01-09T04:43:26.042Z,5.22
2023-01-09T04:44:57.591Z,5.22
2023-01-09T04:46:29.375Z,5.27
2023-01-09T04:48:00.959Z,5.30
2023-01-09T04:49:32.553Z,5.26
2023-01-09T04:51:04.376Z,5.18
2023-01-09T04:52:38.151Z,5.18
2023-01-09T04:54:10.497Z,5.15
2023-01-09T04:55:43.116Z,5.06
2023-01-09T04:57:14.840Z,4.98
2023-01-09T04:58:46.457Z,4.91
2023-01-09T05:00:18.093Z,4.84
2023-01-09T05:01:49.891Z,4.76
2023-01-09T05:03:21.624Z,4.71
2023-01-09T05:04:53.258Z,4.69
2023-01-09T05:06:25.305Z,4.67
2023-01-09T05:07:56.811Z,4.69
2023-01-09T05:09:28.303Z,4.68
2023-01-09T05:11:00.764Z,4.68
2023-01-09T05:12:32.468Z,4.67
2023-01-09T05:14:04.109Z,4.64
2023-01-09T05:15:35.539Z,4.63
2023-01-09T05:17:07.085Z,4.62
2023-01-09T05:18:38.588Z,4.56
2023-01-09T05:20:10.367Z,4.49
2023-01-09T05:21:41.888Z,4.48
2023-01-09T05:23:13.375Z,4.46
2023-01-09T05:24:44.839Z,4.47
2023-01-09T05:26:16.504Z,4.43
2023-01-09T05:27:48.038Z,4.40
2023-01-09T05:29:19.890Z,4.35
2023-01-09T05:30:51.451Z,4.31
2023-01-09T05:32:23.159Z,4.29
2023-01-09T05:33:54.807Z,4.28
2023-01-09T05:35:26.438Z,4.32
2023-01-09T05:36:58.155Z,4.28
2023-01-09T05:38:29.869Z,4.30
2023-01-09T05:40:01.538Z,4.32
2023-01-09T05:41:33.069Z,4.34
2023-01-09T05:43:05.320Z,4.42
2023-01-09T05:44:36.946Z,4.47
2023-01-09T05:46:08.520Z,4.49
2023-01-09T05:47:41.718Z,4.48
2023-01-09T05:49:13.306Z,4.51
2023-01-09T05:50:44.860Z,4.53
2023-01-09T05:52:16.378Z,4.59
2023-01-09T05:53:47.898Z,4.57
2023-01-09T05:55:19.376Z,4.53
2023-01-09T05:56:50.937Z,4.47
2023-01-09T05:58:22.537Z,4.44
2023-01-09T05:59:54.067Z,4.44
2023-01-09T06:01:25.686Z,4.46
2023-01-09T06:02:57.478Z,4.51
2023-01-09T06:04:30.173Z,4.62
2023-01-09T06:06:02.052Z,4.70
2023-01-09T06:07:36.738Z,4.78
2023-01-09T06:09:08.431Z,4.82
2023-01-09T06:10:40.040Z,4.86
2023-01-09T06:12:11.491Z,4.91
2023-01-09T06:13:43.015Z,4.94
2023-01-09T06:15:15.605Z,4.98
2023-01-09T06:16:47.135Z,4.99
2023-01-09T06:18:18.650Z,4.97
2023-01-09T06:19:51.583Z,4.95
2023-01-09T06:21:23.224Z,4.94
2023-01-09T06:22:54.908Z,4.95
2023-01-09T06:24:26.357Z,4.99
2023-01-09T06:25:57.892Z,5.02
2023-01-09T06:27:29.455Z,5.05
2023-01-09T06:29:01.790Z,5.11
2023-01-09T06:30:35.165Z,5.18
2023-01-09T06:32:10.584Z,5.22
2023-01-09T06:33:44.948Z,5.30
2023-01-09T06:35:20.576Z,5.34
2023-01-09T06:36:52.359Z,5.43
2023-01-09T06:38:24.056Z,5.51
2023-01-09T06:40:04.695Z,5.59
2023-01-09T06:41:49.769Z,5.63
2023-01-09T06:43:21.560Z,5.66
2023-01-09T06:44:53.328Z,5.70
2023-01-09T06:46:28.635Z,5.64
2023-01-09T06:48:00.247Z,5.56
2023-01-09T06:49:31.843Z,5.52
2023-01-09T06:51:03.521Z,5.54
2023-01-09T06:52:35.738Z,5.52
2023-01-09T06:54:07.276Z,5.51
2023-01-09T06:55:38.866Z,5.58
2023-01-09T06:57:10.637Z,5.68
2023-01-09T06:58:42.240Z,5.80
2023-01-09T07:00:14.350Z,5.96
2023-01-09T07:01:46.012Z,6.11
2023-01-09T07:03:19.980Z,6.22
2023-01-09T07:04:52.190Z,6.26
2023-01-09T07:06:23.861Z,6.30
2023-01-09T07:07:55.813Z,6.38
2023-01-09T07:09:27.548Z,6.44
2023-01-09T07:10:59.226Z,6.45
2023-01-09T07:12:30.981Z,6.42
2023-01-09T07:14:02.604Z,6.39
2023-01-09T07:15:34.530Z,6.39
2023-01-09T07:17:06.276Z,6.41
2023-01-09T07:18:37.859Z,6.43
2023-01-09T07:20:09.777Z,6.44
2023-01-09T07:21:41.399Z,6.48
2023-01-09T07:23:13.270Z,6.48
2023-01-09T07:24:44.923Z,6.52
2023-01-09T07:26:16.628Z,6.56
2023-01-09T07:27:58.494Z,6.60
2023-01-09T07:29:30.939Z,6.68
2023-01-09T07:31:07.788Z,6.71
2023-01-09T07:32:41.732Z,6.78
2023-01-09T07:34:13.474Z,6.83
2023-01-09T07:35:45.020Z,6.88
2023-01-09T07:37:16.700Z,6.82
2023-01-09T07:38:48.248Z,6.73
2023-01-09T07:40:20.208Z,6.67
2023-01-09T07:41:51.859Z,6.68
2023-01-09T07:43:23.427Z,6.74
2023-01-09T07:44:55.101Z,6.80
2023-01-09T07:46:30.089Z,6.84
2023-01-09T07:48:14.031Z,6.86
2023-01-09T07:49:59.391Z,6.82
2023-01-09T07:51:31.471Z,6.84
2023-01-09T07:53:03.749Z,6.95
2023-01-09T07:54:37.066Z,7.04
2023-01-09T07:56:12.592Z,7.10
2023-01-09T07:58:11.243Z,7.25
2023-01-09T07:59:42.998Z,7.46
2023-01-09T08:01:14.763Z,7.61
2023-01-09T08:02:46.549Z,7.75
2023-01-09T08:04:18.396Z,7.89
2023-01-09T08:05:51.573Z,8.03
2023-01-09T08:07:23.417Z,8.14
2023-01-09T08:08:59.721Z,8.18
2023-01-09T08:10:32.394Z,8.24
2023-01-09T08:12:10.854Z,8.30
2023-01-09T08:13:42.821Z,8.34
2023-01-09T08:15:23.290Z,8.44
2023-01-09T08:16:54.784Z,8.52
2023-01-09T08:18:26.448Z,8.55
2023-01-09T08:19:58.606Z,8.55
2023-01-09T08:21:43.268Z,8.61
2023-01-09T08:23:15.453Z,8.64
2023-01-09T08:24:57.050Z,8.70
2023-01-09T08:26:29.201Z,8.81
2023-01-09T08:28:29.304Z,8.88
2023-01-09T08:30:05.680Z,8.95
2023-01-09T08:31:40.815Z,9.00
2023-01-09T08:33:17.618Z,9.03
2023-01-09T08:34:55.555Z,9.11
2023-01-09T08:38:58.076Z,9.27
2023-01-09T08:40:30.657Z,9.38
2023-01-09T08:42:24.427Z,9.49
2023-01-09T08:44:26.712Z,9.56
2023-01-09T08:46:17.716Z,9.60
2023-01-09T08:48:01.962Z,9.50
2023-01-09T08:49:40.203Z,9.51
2023-01-09T08:52:58.644Z,9.63
2023-01-09T08:54:35.038Z,9.80
2023-01-09T08:56:07.528Z,9.92
2023-01-09T08:57:54.228Z,10.06
2023-01-09T08:59:29.445Z,10.19
2023-01-09T09:01:03.767Z,10.26
2023-01-09T09:02:38.221Z,10.27
2023-01-09T09:04:15.781Z,10.21
2023-01-09T09:05:48.299Z,10.31
2023-01-09T09:07:38.864Z,10.39
2023-01-09T09:09:20.779Z,10.45
2023-01-09T09:11:14.344Z,10.42
2023-01-09T09:12:52.277Z,10.47
2023-01-09T09:14:59.600Z,10.56
2023-01-09T09:16:32.008Z,10.63
2023-01-09T09:18:08.344Z,10.65
2023-01-09T09:19:51.729Z,10.69
2023-01-09T09:21:54.139Z,10.74
2023-01-09T09:23:42.181Z,10.72
2023-01-09T09:25:15.137Z,10.74
2023-01-09T09:27:10.837Z,10.77
2023-01-09T09:28:43.122Z,10.61
2023-01-09T09:30:37.912Z,10.58
2023-01-09T09:32:41.085Z,10.61
2023-01-09T09:34:13.911Z,10.57
2023-01-09T09:35:48.999Z,10.68
2023-01-09T09:37:26.358Z,10.79
2023-01-09T09:39:11.801Z,10.90
2023-01-09T09:41:04.017Z,11.00
2023-01-09T09:42:58.571Z,11.02
2023-01-09T09:44:52.648Z,11.07
2023-01-09T09:46:32.713Z,11.08
2023-01-09T09:48:04.871Z,11.06
2023-01-09T09:49:48.306Z,11.07
2023-01-09T09:51:32.754Z,11.19
2023-01-09T09:55:37.761Z,11.35
2023-01-09T09:57:32.251Z,11.63
2023-01-09T09:59:09.481Z,11.79
2023-01-09T10:00:41.320Z,11.83
2023-01-09T10:02:22.416Z,11.96
2023-01-09T10:03:55.409Z,11.93
2023-01-09T10:05:28.028Z,11.90
2023-01-09T10:07:06.801Z,11.91
2023-01-09T10:08:46.024Z,12.08
2023-01-09T10:10:23.760Z,12.35
2023-01-09T10:11:57.534Z,12.50
2023-01-09T10:13:47.475Z,12.62
2023-01-09T10:15:20.052Z,12.85
2023-01-09T10:17:06.715Z,13.07
2023-01-09T10:18:51.041Z,13.28
2023-01-09T10:20:32.051Z,13.32
2023-01-09T10:22:15.139Z,13.49
2023-01-09T10:23:53.631Z,13.55
2023-01-09T10:25:31.018Z,13.55
2023-01-09T10:27:06.681Z,13.48
2023-01-09T10:28:53.654Z,13.45
2023-01-09T10:30:35.459Z,13.41
2023-01-09T10:32:28.271Z,13.39
2023-01-09T10:34:12.249Z,13.26
2023-01-09T10:36:05.664Z,13.17
2023-01-09T10:37:40.990Z,13.18
2023-01-09T10:39:19.614Z,13.05
2023-01-09T10:41:11.490Z,12.84
2023-01-09T10:42:43.656Z,12.65
2023-01-09T10:44:45.335Z,12.56
2023-01-09T10:46:22.897Z,12.47
2023-01-09T10:47:57.414Z,12.42
2023-01-09T10:49:29.394Z,12.37
2023-01-09T10:51:01.494Z,12.32
2023-01-09T10:52:37.362Z,12.35
2023-01-09T10:54:11.695Z,12.38
2023-01-09T10:55:44.807Z,12.45
2023-01-09T10:57:20.092Z,12.49
2023-01-09T10:58:52.093Z,12.53
2023-01-09T11:00:24.304Z,12.48
2023-01-09T11:01:55.983Z,12.44
2023-01-09T11:03:27.865Z,12.42
2023-01-09T11:04:59.539Z,12.45
2023-01-09T11:06:40.206Z,12.49
2023-01-09T11:08:21.774Z,12.56
2023-01-09T11:09:56.935Z,12.64
2023-01-09T11:11:35.764Z,12.66
2023-01-09T11:13:34.238Z,12.78
2023-01-09T11:15:14.697Z,12.83
2023-01-09T11:16:53.592Z,12.73
2023-01-09T11:18:25.310Z,12.67
2023-01-09T11:20:06.719Z,12.65
2023-01-09T11:21:40.769Z,12.67
2023-01-09T11:23:24.617Z,12.65
2023-01-09T11:25:11.891Z,12.61
2023-01-09T11:26:43.683Z,12.55
2023-01-09T11:28:15.325Z,12.56
2023-01-09T11:29:46.998Z,12.57
2023-01-09T11:31:19.498Z,12.56
2023-01-09T11:32:51.158Z,12.58
2023-01-09T11:34:23.299Z,12.64
2023-01-09T11:35:56.264Z,12.82
2023-01-09T11:37:29.232Z,13.03
2023-01-09T11:39:01.158Z,13.34
2023-01-09T11:40:36.337Z,13.72
2023-01-09T11:42:09.716Z,14.01
2023-01-09T11:43:41.827Z,14.18
2023-01-09T11:45:24.441Z,14.43
2023-01-09T11:46:56.057Z,14.49
2023-01-09T11:48:28.349Z,14.45
2023-01-09T11:50:08.360Z,14.43
2023-01-09T11:51:40.658Z,14.40
2023-01-09T11:53:15.317Z,14.33
2023-01-09T11:54:57.929Z,14.36
2023-01-09T11:56:30.034Z,14.35
2023-01-09T11:58:02.185Z,14.38
2023-01-09T11:59:34.118Z,14.46
2023-01-09T12:01:14.824Z,14.56
2023-01-09T12:02:50.433Z,14.67
2023-01-09T12:04:25.058Z,14.76
2023-01-09T12:05:56.743Z,14.85
2023-01-09T12:07:31.433Z,14.87
2023-01-09T12:09:04.096Z,14.80
2023-01-09T12:10:35.969Z,14.77
2023-01-09T12:12:22.809Z,14.71
2023-01-09T12:14:17.658Z,14.65
2023-01-09T12:16:08.073Z,14.55
2023-01-09T12:17:40.977Z,14.45
2023-01-09T12:19:19.791Z,14.32
2023-01-09T12:21:09.801Z,14.15
2023-01-09T12:22:45.461Z,13.94
2023-01-09T12:24:26.089Z,13.82
2023-01-09T12:25:57.719Z,13.73
2023-01-09T12:27:32.876Z,13.55
2023-01-09T12:29:09.339Z,13.44
2023-01-09T12:30:49.856Z,13.35
2023-01-09T12:32:40.469Z,13.21
2023-01-09T12:34:12.054Z,13.14
2023-01-09T12:35:48.906Z,13.12
2023-01-09T12:37:30.195Z,13.03
2023-01-09T12:39:10.117Z,13.01
2023-01-09T12:40:50.621Z,12.99
2023-01-09T12:42:25.501Z,12.90
2023-01-09T12:44:03.692Z,12.95
2023-01-09T12:45:35.752Z,13.00
2023-01-09T12:47:26.729Z,12.97
2023-01-09T12:49:16.822Z,12.88
2023-01-09T12:51:14.648Z,12.73
2023-01-09T12:52:47.792Z,12.65
2023-01-09T12:54:34.368Z,12.56
2023-01-09T12:56:15.133Z,12.52
2023-01-09T12:57:48.223Z,12.45
2023-01-09T12:59:25.388Z,12.35
2023-01-09T13:00:57.136Z,12.40
2023-01-09T13:02:29.089Z,12.43
2023-01-09T13:04:09.893Z,12.44
2023-01-09T13:05:46.202Z,12.44
2023-01-09T13:07:18.763Z,12.48
2023-01-09T13:08:56.166Z,12.47
2023-01-09T13:10:28.028Z,12.53
2023-01-09T13:11:59.522Z,12.59
2023-01-09T13:13:50.592Z,12.58
2023-01-09T13:15:29.545Z,12.56
2023-01-09T13:17:01.647Z,12.67
2023-01-09T13:18:33.310Z,12.67
2023-01-09T13:20:10.287Z,12.59
2023-01-09T13:21:42.365Z,12.49
2023-01-09T13:23:34.687Z,12.36
2023-01-09T13:25:35.782Z,12.30
2023-01-09T13:27:09.501Z,12.24
2023-01-09T13:28:43.844Z,12.20
2023-01-09T13:30:15.324Z,12.23
2023-01-09T13:31:53.188Z,12.25
2023-01-09T13:33:27.498Z,12.15
2023-01-09T13:35:01.344Z,12.15
2023-01-09T13:36:34.216Z,12.17
2023-01-09T13:38:06.428Z,12.20
2023-01-09T13:39:38.575Z,12.28
2023-01-09T13:41:32.494Z,12.44
2023-01-09T13:43:07.869Z,12.55
2023-01-09T13:44:39.822Z,12.59
2023-01-09T13:46:12.417Z,12.59
2023-01-09T13:47:44.158Z,12.53
2023-01-09T13:49:34.459Z,12.50
2023-01-09T13:51:42.072Z,12.49
2023-01-09T13:53:20.314Z,12.61
2023-01-09T13:54:52.157Z,12.66
2023-01-09T13:56:24.145Z,12.68
2023-01-09T13:58:05.422Z,12.65
2023-01-09T13:59:37.756Z,12.55
2023-01-09T14:01:24.637Z,12.45
2023-01-09T14:02:57.136Z,12.33
2023-01-09T14:04:37.279Z,12.30
2023-01-09T14:06:12.480Z,12.19
2023-01-09T14:07:49.208Z,12.11
2023-01-09T14:09:21.389Z,12.07
2023-01-09T14:11:00.386Z,12.00
2023-01-09T14:12:32.834Z,11.92
2023-01-09T14:14:05.112Z,11.90
2023-01-09T14:15:39.511Z,11.91
2023-01-09T14:17:25.659Z,11.94
2023-01-09T14:19:07.648Z,11.92
2023-01-09T14:20:40.615Z,11.91
2023-01-09T14:22:25.200Z,11.96
2023-01-09T14:24:03.580Z,12.02
2023-01-09T14:25:37.694Z,11.95
2023-01-09T14:27:29.515Z,11.88
2023-01-09T14:29:19.405Z,11.89
2023-01-09T14:30:54.733Z,11.91
2023-01-09T14:32:28.383Z,11.91
2023-01-09T14:34:24.007Z,11.81
2023-01-09T14:36:21.778Z,11.71
2023-01-09T14:37:59.088Z,11.64
2023-01-09T14:39:31.702Z,11.55
2023-01-09T14:41:21.626Z,11.48
2023-01-09T14:42:54.507Z,11.42
2023-01-09T14:44:29.072Z,11.39
2023-01-09T14:46:03.852Z,11.36
2023-01-09T14:47:40.401Z,11.35
2023-01-09T14:49:30.469Z,11.31
2023-01-09T14:51:03.249Z,11.25
2023-01-09T14:52:40.524Z,11.17
2023-01-09T14:54:16.097Z,11.05
2023-01-09T14:55:50.682Z,10.97
2023-01-09T14:57:26.422Z,10.93
2023-01-09T14:59:11.129Z,10.85
2023-01-09T15:00:46.495Z,10.76
2023-01-09T15:02:18.559Z,10.76
2023-01-09T15:03:52.612Z,10.73
2023-01-09T15:05:27.245Z,10.72
2023-01-09T15:06:59.849Z,10.69
2023-01-09T15:08:42.305Z,10.63
2023-01-09T15:10:20.842Z,10.49
2023-01-09T15:11:54.906Z,10.43
2023-01-09T15:13:28.481Z,10.40
2023-01-09T15:15:01.020Z,10.34
2023-01-09T15:16:32.707Z,10.27
2023-01-09T15:18:06.125Z,10.22
2023-01-09T15:19:37.639Z,10.19
2023-01-09T15:21:12.164Z,10.18
2023-01-09T15:22:43.829Z,10.14
2023-01-09T15:24:19.037Z,10.10
2023-01-09T15:25:50.891Z,10.03
2023-01-09T15:27:23.468Z,9.98
2023-01-09T15:29:01.873Z,9.96
2023-01-09T15:30:36.915Z,9.92
2023-01-09T15:32:14.274Z,9.83
2023-01-09T15:33:46.464Z,9.77
2023-01-09T15:35:18.128Z,9.73
2023-01-09T15:36:50.612Z,9.75
2023-01-09T15:38:23.200Z,9.75
2023-01-09T15:39:55.075Z,9.77
2023-01-09T15:41:49.119Z,9.75
2023-01-09T15:43:20.763Z,9.72
2023-01-09T15:44:53.891Z,9.74
2023-01-09T15:46:26.202Z,9.81
2023-01-09T15:48:14.527Z,9.89
2023-01-09T15:49:47.013Z,9.96
2023-01-09T15:51:18.996Z,10.00
2023-01-09T15:52:50.981Z,10.06
2023-01-09T15:54:32.468Z,10.09
2023-01-09T15:56:05.619Z,10.08
2023-01-09T15:57:37.597Z,10.10
2023-01-09T15:59:30.511Z,10.11
2023-01-09T16:01:14.352Z,10.10
2023-01-09T16:03:04.269Z,10.09
2023-01-09T16:04:40.246Z,10.12
2023-01-09T16:06:19.399Z,10.10
2023-01-09T16:07:51.168Z,10.08
2023-01-09T16:09:29.192Z,10.12
2023-01-09T16:11:10.962Z,10.12
2023-01-09T16:12:42.855Z,10.17
2023-01-09T16:14:17.303Z,10.19
2023-01-09T16:15:49.507Z,10.25
2023-01-09T16:17:23.890Z,10.27
2023-01-09T16:18:56.443Z,10.24
2023-01-09T16:20:28.287Z,10.23
2023-01-09T16:22:00.457Z,10.23
2023-01-09T16:23:32.192Z,10.25
2023-01-09T16:25:22.229Z,10.25
2023-01-09T16:27:12.627Z,10.29
2023-01-09T16:28:44.281Z,10.33
2023-01-09T16:30:44.490Z,10.35
2023-01-09T16:32:22.156Z,10.27
2023-01-09T16:33:56.807Z,10.16
2023-01-09T16:35:28.661Z,9.98
2023-01-09T16:37:02.977Z,9.93
2023-01-09T16:38:34.638Z,9.90
2023-01-09T16:40:08.855Z,9.79
2023-01-09T16:42:00.049Z,9.74
2023-01-09T16:43:31.608Z,9.78
2023-01-09T16:45:03.615Z,9.77
2023-01-09T16:46:41.675Z,9.83
2023-01-09T16:48:16.183Z,9.83
2023-01-09T16:49:47.982Z,9.86
2023-01-09T16:51:21.674Z,9.92
2023-01-09T16:52:53.278Z,9.96
2023-01-09T16:54:24.881Z,9.99
2023-01-09T16:55:56.950Z,10.05
2023-01-09T16:57:29.023Z,10.11
2023-01-09T16:59:00.789Z,10.13
2023-01-09T17:00:32.552Z,10.16
2023-01-09T17:02:06.331Z,10.12
2023-01-09T17:03:37.869Z,10.08
2023-01-09T17:05:10.142Z,10.05
2023-01-09T17:06:42.021Z,10.03
2023-01-09T17:08:23.603Z,10.02
2023-01-09T17:09:55.935Z,9.99
2023-01-09T17:11:34.690Z,9.94
2023-01-09T17:13:07.075Z,10.00
2023-01-09T17:14:38.900Z,10.08
2023-01-09T17:16:10.470Z,10.11
2023-01-09T17:17:42.210Z,10.05
2023-01-09T17:19:15.605Z,10.05
2023-01-09T17:20:48.450Z,10.00
2023-01-09T17:22:20.578Z,9.95
2023-01-09T17:24:12.282Z,9.89
2023-01-09T17:26:02.489Z,9.78
2023-01-09T17:27:53.278Z,9.72
2023-01-09T17:29:24.859Z,9.63
2023-01-09T17:30:56.534Z,9.59
2023-01-09T17:32:28.291Z,9.58
2023-01-09T17:34:00.039Z,9.56
2023-01-09T17:35:31.503Z,9.51
2023-01-09T17:37:04.623Z,9.57
2023-01-09T17:38:36.300Z,9.66
2023-01-09T17:40:25.921Z,9.65
2023-01-09T17:41:59.059Z,9.69
2023-01-09T17:43:32.233Z,9.70
2023-01-09T17:45:03.961Z,9.69
2023-01-09T17:46:36.095Z,9.72
2023-01-09T17:48:11.119Z,9.70
2023-01-09T17:49:42.989Z,9.68
2023-01-09T17:51:14.989Z,9.64
2023-01-09T17:52:49.794Z,9.65
2023-01-09T17:54:21.671Z,9.67
2023-01-09T17:55:53.412Z,9.71
2023-01-09T17:57:25.182Z,9.70
2023-01-09T17:58:57.594Z,9.66
2023-01-09T18:00:30.697Z,9.59
2023-01-09T18:02:02.556Z,9.58
2023-01-09T18:03:34.810Z,9.54
2023-01-09T18:05:06.704Z,9.49
2023-01-09T18:06:38.175Z,9.49
2023-01-09T18:08:12.760Z,9.50
2023-01-09T18:09:44.771Z,9.48
2023-01-09T18:11:19.684Z,9.36
2023-01-09T18:12:51.758Z,9.31
2023-01-09T18:14:23.388Z,9.28
2023-01-09T18:15:54.867Z,9.23
2023-01-09T18:17:26.546Z,9.24
2023-01-09T18:18:58.317Z,9.22
2023-01-09T18:20:29.852Z,9.18
2023-01-09T18:22:01.646Z,9.10
2023-01-09T18:23:33.187Z,9.07
2023-01-09T18:25:05.036Z,9.07
2023-01-09T18:26:36.641Z,9.06
2023-01-09T18:28:08.613Z,9.03
2023-01-09T18:29:40.716Z,8.98
2023-01-09T18:31:13.376Z,8.97
2023-01-09T18:32:44.929Z,8.93
2023-01-09T18:34:17.190Z,8.89
2023-01-09T18:35:48.789Z,8.93
2023-01-09T18:37:20.365Z,9.01
2023-01-09T18:38:52.900Z,9.05
2023-01-09T18:40:24.670Z,9.12
2023-01-09T18:41:56.221Z,9.15
2023-01-09T18:43:27.846Z,9.18
2023-01-09T18:44:59.590Z,9.14
2023-01-09T18:46:32.450Z,8.99
2023-01-09T18:48:04.770Z,8.87
2023-01-09T18:49:36.476Z,8.84
2023-01-09T18:51:08.187Z,8.84
2023-01-09T18:52:39.832Z,8.81
2023-01-09T18:54:13.256Z,8.74
2023-01-09T18:55:44.846Z,8.67
2023-01-09T18:57:16.574Z,8.58
2023-01-09T18:58:48.564Z,8.52
2023-01-09T19:00:20.275Z,8.52
2023-01-09T19:01:51.919Z,8.50
2023-01-09T19:03:23.475Z,8.54
2023-01-09T19:04:55.010Z,8.48
2023-01-09T19:06:27.213Z,8.48
2023-01-09T19:07:58.862Z,8.47
2023-01-09T19:09:30.492Z,8.40
2023-01-09T19:11:02.670Z,8.37
2023-01-09T19:12:34.781Z,8.31
2023-01-09T19:14:06.780Z,8.26
2023-01-09T19:15:38.622Z,8.25
2023-01-09T19:17:10.280Z,8.27
2023-01-09T19:18:41.983Z,8.27
2023-01-09T19:20:13.890Z,8.25
2023-01-09T19:21:46.023Z,8.26
2023-01-09T19:23:19.551Z,8.24
2023-01-09T19:24:52.425Z,8.24
2023-01-09T19:26:24.710Z,8.22
2023-01-09T19:27:56.568Z,8.21
2023-01-09T19:29:28.994Z,8.24
2023-01-09T19:31:00.721Z,8.25
2023-01-09T19:32:32.308Z,8.23
2023-01-09T19:34:03.913Z,8.29
2023-01-09T19:35:36.186Z,8.37
2023-01-09T19:37:09.654Z,8.41
2023-01-09T19:38:41.768Z,8.43
2023-01-09T19:40:13.425Z,8.47
2023-01-09T19:41:45.356Z,8.46
2023-01-09T19:43:26.492Z,8.49
2023-01-09T19:44:58.199Z,8.53
2023-01-09T19:46:30.542Z,8.58
2023-01-09T19:48:02.136Z,8.62
2023-01-09T19:49:33.849Z,8.60
2023-01-09T19:51:05.982Z,8.55
2023-01-09T19:52:37.720Z,8.54
2023-01-09T19:54:10.116Z,8.52
2023-01-09T19:55:41.739Z,8.48
2023-01-09T19:57:13.319Z,8.51
2023-01-09T19:58:49.002Z,8.51
2023-01-09T20:00:21.157Z,8.55
2023-01-09T20:01:52.739Z,8.60
2023-01-09T20:03:25.609Z,8.68
2023-01-09T20:04:57.266Z,8.73
2023-01-09T20:06:30.775Z,8.79
2023-01-09T20:08:06.362Z,8.88
2023-01-09T20:09:38.429Z,8.94
2023-01-09T20:11:10.488Z,8.95
2023-01-09T20:12:43.547Z,9.01
2023-01-09T20:14:16.987Z,9.03
2023-01-09T20:15:49.032Z,8.99
2023-01-09T20:17:20.735Z,8.95
2023-01-09T20:18:52.235Z,8.96
2023-01-09T20:20:24.028Z,8.95
2023-01-09T20:21:55.488Z,8.96
2023-01-09T20:23:32.705Z,8.93
2023-01-09T20:25:04.360Z,8.95
2023-01-09T20:26:36.264Z,9.00
2023-01-09T20:28:08.704Z,9.04
2023-01-09T20:29:40.313Z,9.08
2023-01-09T20:31:13.114Z,9.07
2023-01-09T20:32:47.410Z,9.04
2023-01-09T20:34:19.001Z,9.06
2023-01-09T20:35:50.525Z,9.06
2023-01-09T20:37:22.630Z,9.00
2023-01-09T20:38:54.939Z,9.04
2023-01-09T20:40:26.943Z,9.04
2023-01-09T20:41:58.843Z,9.07
2023-01-09T20:43:30.368Z,9.10
2023-01-09T20:45:02.003Z,9.10
2023-01-09T20:46:38.048Z,9.09
2023-01-09T20:48:11.371Z,9.08
2023-01-09T20:49:44.513Z,9.07
2023-01-09T20:51:16.230Z,9.05
2023-01-09T20:52:48.131Z,9.02
2023-01-09T20:54:21.416Z,8.95
2023-01-09T20:55:52.971Z,8.90
2023-01-09T20:57:24.698Z,8.84
2023-01-09T20:58:56.622Z,8.84
2023-01-09T21:00:32.286Z,8.82
2023-01-09T21:02:03.896Z,8.82